Time;durP1;ratioP1;P1;durP2;ratioP2;P2;SDS_P1;SDS_P2;PMS_P1;PMS_P2;Temp;Humidity;BMP_temperature;BMP_pressure;BME280_temperature;BME280_humidity;BME280_pressure;Samples;Min_cycle;Max_cycle;Signal;HPM_P1;HPM_P2
2022/08/22 00:00:48;;;;;;;5.80;2.83;;;22.40;59.70;;;;;;5074227;28;20473;-70
2022/08/22 00:03:26;;;;;;;4.03;2.40;;;22.40;59.70;;;;;;5073894;28;20993;-70
2022/08/22 00:06:05;;;;;;;3.00;2.60;;;22.40;59.70;;;;;;5074166;28;20440;-70
2022/08/22 00:08:41;;;;;;;4.40;2.77;;;22.40;59.80;;;;;;5074098;28;20487;-70
2022/08/22 00:11:15;;;;;;;4.90;2.80;;;22.30;59.80;;;;;;5074090;28;20439;-70
2022/08/22 00:13:47;;;;;;;4.03;2.50;;;22.30;60.00;;;;;;5073988;28;20563;-70
2022/08/22 00:16:17;;;;;;;3.07;2.40;;;22.30;60.20;;;;;;5073748;28;20436;-70
2022/08/22 00:18:50;;;;;;;6.30;3.50;;;22.20;60.30;;;;;;5074055;28;20434;-70
2022/08/22 00:21:28;;;;;;;8.13;2.80;;;22.10;60.40;;;;;;5073806;28;20438;-70
2022/08/22 00:24:09;;;;;;;6.60;2.93;;;22.10;60.60;;;;;;5073955;28;20487;-70
2022/08/22 00:26:45;;;;;;;5.27;2.80;;;22.00;60.90;;;;;;5074925;28;20436;-70
2022/08/22 00:29:15;;;;;;;6.13;2.70;;;21.90;61.40;;;;;;5074805;28;20433;-70
2022/08/22 00:31:45;;;;;;;4.03;2.90;;;22.00;62.00;;;;;;5074671;28;20460;-70
2022/08/22 00:34:16;;;;;;;6.93;3.17;;;21.90;62.40;;;;;;5073841;28;20485;-70
2022/08/22 00:36:47;;;;;;;3.83;3.10;;;21.80;62.60;;;;;;5073563;28;20900;-70
2022/08/22 00:39:21;;;;;;;6.20;2.93;;;21.80;62.80;;;;;;5074511;28;20429;-70
2022/08/22 00:42:05;;;;;;;4.00;2.70;;;21.80;62.80;;;;;;5073625;28;20429;-70
2022/08/22 00:45:11;;;;;;;10.20;3.40;;;21.80;62.90;;;;;;5073483;28;20502;-70
2022/08/22 00:47:56;;;;;;;3.27;2.90;;;21.80;63.80;;;;;;5058428;28;20496;-70
2022/08/22 00:50:39;;;;;;;4.57;2.57;;;21.70;62.90;;;;;;5073546;28;20421;-70
2022/08/22 00:53:31;;;;;;;4.10;2.50;;;21.70;63.10;;;;;;5073352;28;20683;-70
2022/08/22 00:56:15;;;;;;;3.17;2.50;;;21.60;63.10;;;;;;5073289;28;20434;-70
2022/08/22 00:59:14;;;;;;;4.40;3.07;;;21.70;63.40;;;;;;5073568;28;20433;-70
2022/08/22 01:01:51;;;;;;;4.90;2.80;;;21.60;63.40;;;;;;5073442;28;20425;-70
2022/08/22 01:04:34;;;;;;;4.27;3.13;;;21.60;63.70;;;;;;5073055;28;21075;-70
2022/08/22 01:07:18;;;;;;;5.40;2.90;;;21.50;63.90;;;;;;5073484;28;20433;-70
2022/08/22 01:09:54;;;;;;;6.63;3.10;;;21.40;64.00;;;;;;5073506;28;20422;-70
2022/08/22 01:12:47;;;;;;;6.17;3.30;;;21.40;64.10;;;;;;5073390;28;20428;-70
2022/08/22 01:15:21;;;;;;;3.23;2.50;;;21.30;64.10;;;;;;5073474;28;20841;-70
2022/08/22 01:18:18;;;;;;;4.37;3.00;;;21.30;64.20;;;;;;5073343;28;20437;-70
2022/08/22 01:21:25;;;;;;;6.40;2.90;;;21.30;64.40;;;;;;5073295;28;20437;-70
2022/08/22 01:24:23;;;;;;;6.90;2.83;;;21.20;64.70;;;;;;5055351;28;20471;-70
2022/08/22 01:27:23;;;;;;;4.23;3.10;;;21.10;65.20;;;;;;5073491;28;20425;-70
2022/08/22 01:30:06;;;;;;;3.33;2.60;;;21.10;65.70;;;;;;5073288;28;20842;-70
2022/08/22 01:33:22;;;;;;;4.97;2.77;;;21.00;65.70;;;;;;5075581;28;20504;-70
2022/08/22 01:36:23;;;;;;;4.87;3.13;;;21.00;65.90;;;;;;5077229;28;20445;-70
2022/08/22 01:39:09;;;;;;;5.37;2.83;;;21.00;66.10;;;;;;5076836;28;20424;-70
2022/08/22 01:42:08;;;;;;;3.50;3.20;;;21.00;66.10;;;;;;5076992;28;20428;-70
2022/08/22 01:44:54;;;;;;;11.77;3.40;;;21.00;66.20;;;;;;5076937;28;20535;-70
2022/08/22 01:47:26;;;;;;;6.40;2.73;;;21.00;66.30;;;;;;5076917;28;20439;-70
2022/08/22 01:49:58;;;;;;;2.67;2.43;;;21.00;66.50;;;;;;5076826;28;20436;-70
2022/08/22 01:52:36;;;;;;;3.30;2.83;;;21.00;66.60;;;;;;5077282;28;20809;-70
2022/08/22 01:55:11;;;;;;;6.10;2.73;;;21.00;66.80;;;;;;5078004;28;20464;-70
2022/08/22 01:57:51;;;;;;;7.90;3.10;;;21.00;67.60;;;;;;5076380;28;20839;-70
2022/08/22 02:00:21;;;;;;;4.33;3.10;;;20.90;66.90;;;;;;5076669;28;20432;-70
2022/08/22 02:03:02;;;;;;;4.80;3.03;;;20.90;67.00;;;;;;5076554;28;20465;-69
2022/08/22 02:05:36;;;;;;;5.87;3.30;;;20.80;67.10;;;;;;5076757;28;20463;-69
2022/08/22 02:08:05;;;;;;;4.17;3.00;;;20.80;67.30;;;;;;5076433;28;20463;-69
2022/08/22 02:10:57;;;;;;;5.23;3.07;;;20.80;67.20;;;;;;5076332;28;20936;-69
2022/08/22 02:13:45;;;;;;;3.10;2.80;;;20.70;67.30;;;;;;5076788;28;20483;-69
2022/08/22 02:16:18;;;;;;;3.27;2.73;;;20.60;67.30;;;;;;5077040;28;20440;-70
2022/08/22 02:18:56;;;;;;;4.63;2.70;;;20.60;67.40;;;;;;5076897;28;20922;-70
2022/08/22 02:21:31;;;;;;;3.97;3.20;;;20.60;67.60;;;;;;5077781;28;20434;-70
2022/08/22 02:24:02;;;;;;;4.23;3.60;;;20.50;67.50;;;;;;5077859;28;20464;-70
2022/08/22 02:26:43;;;;;;;7.77;2.90;;;20.40;67.80;;;;;;5077623;28;20438;-70
2022/08/22 02:29:15;;;;;;;3.60;3.17;;;20.40;68.20;;;;;;5076998;28;20432;-70
2022/08/22 02:31:47;;;;;;;6.73;3.03;;;20.30;68.20;;;;;;5076405;28;20807;-70
2022/08/22 02:34:32;;;;;;;4.17;3.10;;;20.30;68.40;;;;;;5075483;28;21009;-70
2022/08/22 02:37:08;;;;;;;3.90;3.30;;;20.30;68.70;;;;;;5075589;28;20433;-70
2022/08/22 02:39:39;;;;;;;5.80;3.60;;;20.30;68.90;;;;;;5075897;28;20425;-70
2022/08/22 02:42:21;;;;;;;3.77;3.43;;;20.30;69.10;;;;;;5075831;28;20433;-70
2022/08/22 02:44:59;;;;;;;4.50;3.60;;;20.30;69.20;;;;;;5075500;28;20433;-70
2022/08/22 02:47:32;;;;;;;4.47;3.20;;;20.20;69.20;;;;;;5075737;28;20433;-70
2022/08/22 02:50:09;;;;;;;4.20;3.60;;;20.20;69.30;;;;;;5075700;28;20452;-70
2022/08/22 02:52:51;;;;;;;4.13;3.23;;;20.20;69.40;;;;;;5075356;28;20824;-70
2022/08/22 02:55:28;;;;;;;5.20;2.87;;;20.20;69.40;;;;;;5075226;28;20990;-70
2022/08/22 02:58:05;;;;;;;3.77;2.67;;;20.10;69.70;;;;;;5075517;28;20452;-69
2022/08/22 03:00:45;;;;;;;6.40;3.13;;;20.10;70.00;;;;;;5075993;28;20429;-70
2022/08/22 03:03:19;;;;;;;4.00;3.37;;;20.10;70.20;;;;;;5075972;28;20992;-70
2022/08/22 03:05:51;;;;;;;5.03;3.53;;;20.00;70.20;;;;;;5076404;28;20468;-69
2022/08/22 03:08:23;;;;;;;4.20;3.80;;;20.00;70.50;;;;;;5075990;28;20929;-69
2022/08/22 03:11:01;;;;;;;7.20;3.60;;;20.00;70.80;;;;;;5075259;28;20912;-70
2022/08/22 03:13:39;;;;;;;3.80;3.13;;;20.00;70.80;;;;;;5074735;28;20831;-70
2022/08/22 03:16:16;;;;;;;6.03;3.57;;;20.00;71.00;;;;;;5075169;28;20512;-70
2022/08/22 03:18:48;;;;;;;3.70;3.40;;;20.00;71.00;;;;;;5074861;28;20945;-70
2022/08/22 03:21:18;;;;;;;4.77;4.37;;;20.00;71.10;;;;;;5075050;28;20425;-70
2022/08/22 03:23:49;;;;;;;6.00;4.17;;;20.00;71.20;;;;;;5075215;28;20473;-70
2022/08/22 03:26:25;;;;;;;8.53;3.80;;;20.00;71.40;;;;;;5075375;28;20437;-70
2022/08/22 03:29:00;;;;;;;7.33;3.70;;;20.00;71.70;;;;;;5074613;28;20923;-70
2022/08/22 03:31:29;;;;;;;4.97;4.00;;;20.00;71.90;;;;;;5074601;28;20994;-70
2022/08/22 03:34:17;;;;;;;4.60;4.20;;;20.00;72.00;;;;;;5074639;28;20485;-70
2022/08/22 03:36:47;;;;;;;4.77;4.37;;;20.00;72.10;;;;;;5074445;28;20940;-70
2022/08/22 03:39:18;;;;;;;7.43;4.10;;;19.90;72.10;;;;;;5074486;28;20904;-70
2022/08/22 03:42:19;;;;;;;6.90;3.70;;;19.80;73.10;;;;;;5074737;28;20429;-69
2022/08/22 03:45:29;;;;;;;5.70;3.87;;;19.80;72.50;;;;;;5074223;28;20449;-69
2022/08/22 03:48:24;;;;;;;5.27;3.00;;;19.70;72.60;;;;;;5052039;28;20456;-69
2022/08/22 03:51:11;;;;;;;6.63;3.60;;;19.70;72.90;;;;;;5074593;28;20433;-69
2022/08/22 03:54:28;;;;;;;6.33;3.53;;;19.60;73.20;;;;;;5072235;28;20476;-69
2022/08/22 03:57:33;;;;;;;6.53;4.30;;;19.60;73.50;;;;;;5063534;28;20488;-69
2022/08/22 04:00:45;;;;;;;3.57;3.17;;;19.60;74.00;;;;;;5073932;28;20839;-69
2022/08/22 04:03:34;;;;;;;3.60;3.20;;;19.50;74.10;;;;;;5017479;28;20870;-69
2022/08/22 04:06:26;;;;;;;4.57;4.17;;;19.50;74.40;;;;;;5073825;28;20884;-69
2022/08/22 04:09:26;;;;;;;7.90;4.23;;;19.50;74.50;;;;;;5073864;28;20429;-69
2022/08/22 04:12:13;;;;;;;6.67;3.97;;;19.50;74.50;;;;;;5074034;28;20437;-68
2022/08/22 04:15:14;;;;;;;6.03;3.70;;;19.50;74.60;;;;;;5073904;28;20480;-68
2022/08/22 04:18:00;;;;;;;6.77;4.20;;;19.50;74.70;;;;;;5073622;28;20803;-68
2022/08/22 04:20:55;;;;;;;6.67;3.43;;;19.50;74.80;;;;;;5073911;28;20508;-68
2022/08/22 04:23:59;;;;;;;5.50;4.47;;;19.50;74.90;;;;;;5073854;28;20830;-68
2022/08/22 04:26:35;;;;;;;7.03;4.00;;;19.50;75.00;;;;;;5073473;28;20965;-68
2022/08/22 04:29:07;;;;;;;6.40;4.13;;;19.50;75.00;;;;;;5073605;28;20919;-68
2022/08/22 04:31:47;;;;;;;4.40;3.97;;;19.50;74.90;;;;;;5073866;28;20430;-68
2022/08/22 04:34:21;;;;;;;4.70;3.50;;;19.50;74.70;;;;;;5073552;28;20489;-68
2022/08/22 04:36:54;;;;;;;4.70;3.63;;;19.50;74.60;;;;;;5073793;28;20798;-68
2022/08/22 04:39:28;;;;;;;6.67;3.70;;;19.50;74.60;;;;;;5073685;28;20433;-68
2022/08/22 04:42:01;;;;;;;8.63;4.47;;;19.50;74.70;;;;;;5073660;28;20429;-68
2022/08/22 04:44:36;;;;;;;5.73;4.47;;;19.50;74.70;;;;;;5073698;28;20870;-68
2022/08/22 04:47:09;;;;;;;5.07;4.13;;;19.50;74.70;;;;;;5073638;28;20433;-68
2022/08/22 04:49:42;;;;;;;4.80;3.67;;;19.50;74.80;;;;;;5073710;28;20451;-68
2022/08/22 04:52:18;;;;;;;5.60;4.40;;;19.40;74.50;;;;;;5073258;28;20511;-69
2022/08/22 04:54:57;;;;;;;4.33;3.93;;;19.40;74.90;;;;;;5073539;28;20477;-68
2022/08/22 04:57:31;;;;;;;4.60;3.83;;;19.30;75.20;;;;;;5073256;28;20467;-68
2022/08/22 05:00:00;;;;;;;4.83;4.40;;;19.30;75.40;;;;;;5073487;28;20466;-69
2022/08/22 05:02:28;;;;;;;5.67;4.80;;;19.30;75.50;;;;;;5073380;28;20449;-70
2022/08/22 05:05:02;;;;;;;10.20;4.20;;;19.30;75.60;;;;;;5073364;28;20430;-70
2022/08/22 05:07:35;;;;;;;7.27;4.10;;;19.30;75.60;;;;;;5075608;28;20851;-70
2022/08/22 05:10:08;;;;;;;6.87;3.83;;;19.20;75.80;;;;;;5077771;28;20436;-70
2022/08/22 05:12:39;;;;;;;9.53;4.00;;;19.20;76.20;;;;;;5077642;28;20818;-70
2022/08/22 05:15:15;;;;;;;10.43;4.60;;;19.20;76.60;;;;;;5077563;28;20959;-70
2022/08/22 05:17:43;;;;;;;6.90;4.27;;;19.20;76.90;;;;;;5077629;28;20441;-70
2022/08/22 05:20:21;;;;;;;4.70;4.30;;;19.20;77.10;;;;;;5078212;28;20445;-70
2022/08/22 05:22:53;;;;;;;4.40;4.00;;;19.20;77.10;;;;;;5077860;28;20469;-70
2022/08/22 05:25:25;;;;;;;6.00;3.97;;;19.30;77.20;;;;;;5078188;28;20433;-69
2022/08/22 05:28:01;;;;;;;6.47;4.40;;;19.20;77.20;;;;;;5078371;28;20433;-70
2022/08/22 05:30:31;;;;;;;7.97;5.10;;;19.30;77.50;;;;;;5078192;28;20433;-70
2022/08/22 05:33:04;;;;;;;6.20;4.37;;;19.30;77.50;;;;;;5078644;28;20465;-70
2022/08/22 05:35:37;;;;;;;7.67;5.37;;;19.40;77.50;;;;;;5078402;28;20471;-71
2022/08/22 05:38:08;;;;;;;8.60;5.57;;;19.40;77.70;;;;;;5078392;28;20426;-70
2022/08/22 05:40:37;;;;;;;6.40;4.87;;;19.40;77.60;;;;;;5078591;28;20464;-70
2022/08/22 05:43:05;;;;;;;10.37;4.03;;;19.40;77.80;;;;;;5080044;28;20527;-70
2022/08/22 05:45:35;;;;;;;6.97;5.10;;;19.50;78.30;;;;;;5080742;28;20504;-71
2022/08/22 05:48:05;;;;;;;7.63;5.17;;;19.50;78.50;;;;;;5076582;28;20439;-70
2022/08/22 05:50:37;;;;;;;6.43;5.80;;;19.60;78.90;;;;;;5076759;28;20433;-70
2022/08/22 05:53:10;;;;;;;7.70;6.13;;;19.70;79.30;;;;;;5076709;28;20464;-71
2022/08/22 05:55:46;;;;;;;9.03;6.20;;;19.70;79.30;;;;;;5076623;28;20469;-69
2022/08/22 05:58:27;;;;;;;8.50;5.73;;;19.80;79.40;;;;;;5076589;28;20846;-70
2022/08/22 06:00:59;;;;;;;6.17;5.10;;;19.80;79.50;;;;;;5076661;28;20432;-69
2022/08/22 06:03:30;;;;;;;9.83;5.97;;;19.90;80.30;;;;;;5076558;28;20468;-69
2022/08/22 06:06:02;;;;;;;6.70;6.07;;;19.90;80.30;;;;;;5076206;28;20421;-68
2022/08/22 06:08:33;;;;;;;11.53;5.70;;;19.90;81.00;;;;;;5076629;28;20425;-69
2022/08/22 06:11:07;;;;;;;6.60;5.57;;;20.00;81.70;;;;;;5076475;28;20440;-69
2022/08/22 06:13:37;;;;;;;8.00;4.93;;;20.10;82.30;;;;;;5076081;28;20866;-69
2022/08/22 06:16:12;;;;;;;7.43;5.50;;;20.10;82.40;;;;;;5075923;28;21097;-69
2022/08/22 06:18:42;;;;;;;5.57;5.13;;;20.10;82.80;;;;;;5076349;28;20502;-69
2022/08/22 06:21:13;;;;;;;5.93;5.43;;;20.20;82.90;;;;;;5077342;28;20437;-69
2022/08/22 06:23:45;;;;;;;10.33;5.60;;;20.30;82.40;;;;;;5076092;28;20468;-69
2022/08/22 06:26:13;;;;;;;15.00;7.27;;;20.40;83.20;;;;;;5076291;28;20425;-69
2022/08/22 06:28:43;;;;;;;7.17;5.93;;;20.40;83.30;;;;;;5076014;28;20448;-69
2022/08/22 06:31:15;;;;;;;8.33;6.30;;;20.40;83.30;;;;;;5076452;28;20426;-69
2022/08/22 06:33:46;;;;;;;8.43;6.20;;;20.50;83.40;;;;;;5076033;28;20518;-69
2022/08/22 06:36:31;;;;;;;7.80;6.87;;;20.50;83.70;;;;;;5076000;28;20809;-69
2022/08/22 06:39:08;;;;;;;7.90;6.10;;;20.60;83.90;;;;;;5075701;28;20479;-68
2022/08/22 06:41:40;;;;;;;6.10;4.87;;;20.60;84.10;;;;;;5075675;28;20472;-69
2022/08/22 06:44:08;;;;;;;6.07;4.53;;;20.80;84.20;;;;;;5075779;28;20831;-70
2022/08/22 06:46:37;;;;;;;6.07;4.73;;;21.00;83.80;;;;;;5075810;28;20445;-69
2022/08/22 06:49:07;;;;;;;6.90;4.30;;;21.10;82.40;;;;;;5075697;28;20433;-69
2022/08/22 06:51:35;;;;;;;7.90;5.87;;;21.30;82.60;;;;;;5075680;28;20452;-70
2022/08/22 06:54:08;;;;;;;6.73;4.47;;;21.50;81.50;;;;;;5075707;28;20967;-69
2022/08/22 06:56:40;;;;;;;8.63;5.27;;;21.70;80.60;;;;;;5075435;28;20493;-69
2022/08/22 06:59:12;;;;;;;6.07;3.83;;;22.00;80.10;;;;;;5075248;28;20453;-69
2022/08/22 07:01:46;;;;;;;7.03;4.70;;;22.30;78.90;;;;;;5075656;28;20433;-69
2022/08/22 07:04:13;;;;;;;8.20;4.37;;;22.60;77.70;;;;;;5075559;28;20527;-69
2022/08/22 07:06:43;;;;;;;6.83;4.27;;;22.80;76.70;;;;;;5075555;28;20441;-69
2022/08/22 07:09:21;;;;;;;8.80;4.80;;;23.20;75.00;;;;;;5075370;28;20441;-69
2022/08/22 07:11:48;;;;;;;6.13;3.67;;;23.60;74.30;;;;;;5075237;28;20443;-69
2022/08/22 07:14:17;;;;;;;5.40;3.90;;;23.90;72.00;;;;;;5075184;28;20491;-70
2022/08/22 07:16:48;;;;;;;4.20;2.90;;;24.20;69.60;;;;;;5074868;28;20975;-69
2022/08/22 07:19:24;;;;;;;5.03;3.30;;;24.50;68.10;;;;;;5075222;28;20428;-69
2022/08/22 07:21:51;;;;;;;6.47;3.33;;;24.70;66.50;;;;;;5075297;28;20485;-69
2022/08/22 07:24:24;;;;;;;8.00;4.03;;;24.90;65.50;;;;;;5075106;28;20467;-69
2022/08/22 07:27:04;;;;;;;4.70;2.50;;;25.10;64.30;;;;;;5075047;28;20443;-70
2022/08/22 07:29:41;;;;;;;4.97;3.20;;;25.20;64.00;;;;;;5074149;28;20437;-70
2022/08/22 07:32:13;;;;;;;7.43;3.70;;;25.40;63.10;;;;;;5074892;28;20425;-69
2022/08/22 07:34:52;;;;;;;7.13;2.40;;;25.60;61.70;;;;;;5074513;28;20904;-73
2022/08/22 07:37:32;;;;;;;7.50;2.80;;;25.80;60.90;;;;;;5074547;28;20800;-73
2022/08/22 07:40:09;;;;;;;5.37;3.50;;;26.00;59.50;;;;;;5074783;28;20429;-74
2022/08/22 07:42:44;;;;;;;6.53;3.00;;;26.20;58.70;;;;;;5074916;28;20461;-72
2022/08/22 07:45:15;;;;;;;8.73;3.43;;;26.30;58.20;;;;;;5074619;28;20421;-73
2022/08/22 07:47:57;;;;;;;5.03;2.90;;;26.40;57.80;;;;;;5074549;28;20440;-73
2022/08/22 07:50:35;;;;;;;4.27;3.27;;;26.50;57.60;;;;;;5074639;28;20436;-73
2022/08/22 07:53:12;;;;;;;5.40;2.60;;;26.60;57.70;;;;;;5074237;28;21005;-73
2022/08/22 07:55:42;;;;;;;7.73;3.30;;;26.70;57.20;;;;;;5074410;28;20480;-72
2022/08/22 07:58:12;;;;;;;5.57;3.20;;;26.70;57.10;;;;;;5074025;28;20825;-74
2022/08/22 08:00:44;;;;;;;9.40;2.90;;;26.80;56.90;;;;;;5074418;28;20441;-73
2022/08/22 08:03:12;;;;;;;5.73;3.23;;;26.90;56.60;;;;;;5073939;28;20994;-73
2022/08/22 08:05:43;;;;;;;5.33;2.63;;;27.00;56.40;;;;;;5074343;28;20445;-73
2022/08/22 08:08:24;;;;;;;3.57;2.13;;;27.10;55.80;;;;;;5074002;28;20938;-73
2022/08/22 08:10:56;;;;;;;5.50;3.00;;;27.20;55.00;;;;;;5074088;28;20435;-74
2022/08/22 08:13:28;;;;;;;9.10;3.17;;;27.40;54.60;;;;;;5074540;28;20889;-73
2022/08/22 08:15:55;;;;;;;10.43;3.57;;;27.40;54.20;;;;;;5074934;28;20464;-74
2022/08/22 08:18:24;;;;;;;8.20;2.47;;;27.50;54.10;;;;;;5075575;28;20873;-73
2022/08/22 08:20:55;;;;;;;6.13;2.57;;;27.60;54.10;;;;;;5076386;28;20449;-73
2022/08/22 08:23:23;;;;;;;4.57;2.50;;;27.70;53.70;;;;;;5074253;28;20559;-73
2022/08/22 08:26:01;;;;;;;5.60;3.00;;;27.70;53.30;;;;;;5074474;28;20472;-73
2022/08/22 08:28:34;;;;;;;12.50;2.70;;;27.80;53.00;;;;;;5074092;28;20440;-72
2022/08/22 08:31:14;;;;;;;6.70;3.27;;;27.90;53.10;;;;;;5074475;28;20509;-73
2022/08/22 08:33:44;;;;;;;7.63;3.60;;;28.00;52.90;;;;;;5074766;28;20481;-72
2022/08/22 08:36:48;;;;;;;5.97;3.27;;;28.20;52.90;;;;;;5074882;28;20565;-73
2022/08/22 08:39:25;;;;;;;3.23;2.23;;;28.30;53.20;;;;;;5064200;28;20453;-73
2022/08/22 08:42:20;;;;;;;5.80;2.53;;;28.50;52.20;;;;;;5073735;28;20431;-73
2022/08/22 08:45:22;;;;;;;5.73;2.97;;;28.70;51.70;;;;;;5073430;28;20445;-73
2022/08/22 08:48:04;;;;;;;3.30;2.43;;;28.90;50.90;;;;;;5073544;28;20544;-72
2022/08/22 08:50:44;;;;;;;7.23;2.90;;;29.30;50.00;;;;;;5073548;28;20437;-73
2022/08/22 08:53:43;;;;;;;5.33;2.73;;;29.60;49.00;;;;;;5073527;28;20475;-72
2022/08/22 08:56:20;;;;;;;4.37;2.40;;;30.00;47.90;;;;;;5052194;28;20602;-73
2022/08/22 08:58:59;;;;;;;3.23;1.97;;;30.50;46.20;;;;;;5073117;28;20444;-73
2022/08/22 09:01:58;;;;;;;4.13;1.90;;;30.90;44.70;;;;;;5073592;28;20429;-73
2022/08/22 09:05:11;;;;;;;4.43;2.20;;;31.20;42.90;;;;;;5069554;28;20476;-73
2022/08/22 09:08:00;;;;;;;4.30;2.40;;;31.30;41.50;;;;;;5073085;28;20461;-73
2022/08/22 09:10:41;;;;;;;3.07;1.67;;;31.30;41.00;;;;;;5073502;28;20516;-71
2022/08/22 09:13:31;;;;;;;4.27;2.43;;;31.40;40.70;;;;;;5073466;28;20469;-71
2022/08/22 09:16:17;;;;;;;3.97;2.00;;;31.30;40.40;;;;;;5073428;28;20473;-72
2022/08/22 09:19:06;;;;;;;7.13;2.80;;;31.30;40.80;;;;;;5073020;28;20904;-73
2022/08/22 09:22:17;;;;;;;3.83;2.00;;;31.20;40.90;;;;;;5073300;28;20429;-73
2022/08/22 09:25:10;;;;;;;3.70;1.80;;;31.20;40.70;;;;;;5073226;28;20448;-73
2022/08/22 09:27:45;;;;;;;3.93;2.57;;;31.00;39.80;;;;;;5073269;28;20440;-73
2022/08/22 09:30:15;;;;;;;4.20;2.00;;;30.90;40.40;;;;;;5072952;28;20934;-73
2022/08/22 09:32:56;;;;;;;3.93;2.30;;;30.90;41.00;;;;;;5072875;28;21105;-73
2022/08/22 09:35:31;;;;;;;5.40;2.37;;;30.80;40.60;;;;;;5073081;28;20440;-73
2022/08/22 09:38:15;;;;;;;7.37;2.23;;;30.80;40.70;;;;;;5073168;28;20435;-73
2022/08/22 09:40:49;;;;;;;4.10;2.07;;;30.70;41.40;;;;;;5073000;28;20828;-73
2022/08/22 09:43:21;;;;;;;3.40;1.87;;;30.70;41.30;;;;;;5073229;28;20475;-72
2022/08/22 09:45:56;;;;;;;3.30;2.20;;;30.70;40.60;;;;;;5073517;28;20433;-73
2022/08/22 09:48:35;;;;;;;3.43;2.33;;;30.80;40.30;;;;;;5072804;28;20907;-73
2022/08/22 09:51:13;;;;;;;4.47;2.47;;;30.70;39.00;;;;;;5073199;28;20429;-73
2022/08/22 09:54:11;;;;;;;6.00;2.33;;;30.70;39.20;;;;;;5075189;28;20484;-73
2022/08/22 09:56:45;;;;;;;7.77;2.50;;;30.70;39.80;;;;;;5076382;28;21065;-74
2022/08/22 09:59:20;;;;;;;3.27;1.77;;;30.70;38.50;;;;;;5076714;28;20436;-73
2022/08/22 10:01:57;;;;;;;2.67;2.20;;;30.60;38.90;;;;;;5076727;28;20798;-73
2022/08/22 10:04:43;;;;;;;2.47;1.97;;;30.70;40.00;;;;;;5076539;28;20512;-73
2022/08/22 10:07:31;;;;;;;7.07;3.10;;;30.80;38.50;;;;;;5076464;28;20433;-73
2022/08/22 10:10:06;;;;;;;2.53;1.83;;;30.80;39.10;;;;;;5076499;28;20451;-74
2022/08/22 10:12:42;;;;;;;3.77;2.30;;;30.80;39.20;;;;;;5076360;28;20429;-73
2022/08/22 10:15:16;;;;;;;4.40;2.10;;;30.90;39.40;;;;;;5076420;28;20437;-73
2022/08/22 10:17:53;;;;;;;3.30;2.20;;;30.90;39.10;;;;;;5076574;28;20460;-74
2022/08/22 10:20:27;;;;;;;2.70;2.07;;;31.00;39.10;;;;;;5077074;28;20803;-73
2022/08/22 10:23:01;;;;;;;4.03;2.13;;;31.00;39.00;;;;;;5076165;28;20479;-72
2022/08/22 10:25:37;;;;;;;2.77;1.70;;;31.10;38.90;;;;;;5076205;28;20444;-74
2022/08/22 10:28:22;;;;;;;3.73;2.03;;;31.20;39.10;;;;;;5075832;28;20442;-72
2022/08/22 10:31:01;;;;;;;4.47;2.17;;;31.20;37.20;;;;;;5076920;28;20429;-72
2022/08/22 10:33:33;;;;;;;9.43;1.97;;;31.20;37.80;;;;;;5076013;28;20477;-72
2022/08/22 10:36:07;;;;;;;4.60;2.40;;;31.20;37.90;;;;;;5075675;28;20465;-72
2022/08/22 10:38:39;;;;;;;6.33;2.57;;;31.20;38.40;;;;;;5076006;28;20442;-72
2022/08/22 10:41:11;;;;;;;5.23;2.10;;;31.30;38.60;;;;;;5075986;28;20441;-72
2022/08/22 10:43:46;;;;;;;6.27;2.53;;;31.40;38.00;;;;;;5076049;28;20475;-71
2022/08/22 10:46:18;;;;;;;4.47;2.63;;;31.60;38.20;;;;;;5075975;28;20429;-71
2022/08/22 10:48:49;;;;;;;4.90;2.57;;;31.80;37.80;;;;;;5075970;28;20502;-71
2022/08/22 10:51:31;;;;;;;3.60;2.17;;;31.90;36.50;;;;;;5076159;28;20433;-71
2022/08/22 10:54:13;;;;;;;3.30;2.50;;;32.10;36.80;;;;;;5077251;28;20476;-71
2022/08/22 10:56:43;;;;;;;5.20;2.87;;;32.40;36.40;;;;;;5076909;28;20990;-71
2022/08/22 10:59:24;;;;;;;6.17;2.47;;;32.70;36.10;;;;;;5077514;28;20428;-71
2022/08/22 11:02:01;;;;;;;6.60;2.47;;;33.10;36.00;;;;;;5075687;28;20436;-71
2022/08/22 11:04:43;;;;;;;5.20;2.70;;;33.50;35.00;;;;;;5074104;28;20475;-71
2022/08/22 11:07:43;;;;;;;4.33;2.50;;;33.90;34.50;;;;;;5075474;28;20443;-72
2022/08/22 11:10:22;;;;;;;4.43;2.47;;;34.20;33.70;;;;;;5075378;28;20451;-72
2022/08/22 11:13:04;;;;;;;5.23;3.07;;;34.40;32.70;;;;;;5075388;28;20468;-71
2022/08/22 11:16:04;;;;;;;5.00;2.43;;;34.70;32.70;;;;;;5075364;28;20455;-71
2022/08/22 11:19:01;;;;;;;4.77;2.57;;;34.70;31.00;;;;;;5074856;28;20779;-71
2022/08/22 11:21:45;;;;;;;5.00;2.80;;;34.90;30.30;;;;;;5074939;28;20927;-71
2022/08/22 11:24:33;;;;;;;7.67;2.37;;;34.80;30.40;;;;;;5075078;28;20513;-71
2022/08/22 11:27:05;;;;;;;6.87;2.67;;;34.70;31.00;;;;;;5052237;28;20474;-71
2022/08/22 11:29:40;;;;;;;3.70;2.20;;;34.60;31.80;;;;;;5075213;28;20432;-71
2022/08/22 11:32:15;;;;;;;5.23;2.43;;;34.50;32.30;;;;;;5075352;28;20424;-71
2022/08/22 11:34:50;;;;;;;3.80;2.40;;;34.50;32.10;;;;;;5075478;28;20487;-71
2022/08/22 11:37:38;;;;;;;3.77;2.37;;;34.40;32.20;;;;;;5075565;28;20563;-72
2022/08/22 11:40:22;;;;;;;5.10;2.87;;;34.50;32.60;;;;;;5076355;28;20459;-72
2022/08/22 11:42:57;;;;;;;5.07;2.47;;;34.50;32.50;;;;;;5076128;28;20993;-71
2022/08/22 11:45:29;;;;;;;6.17;2.50;;;34.50;32.10;;;;;;5074717;28;20898;-71
2022/08/22 11:48:01;;;;;;;4.77;2.70;;;34.30;30.80;;;;;;5075798;28;20766;-71
2022/08/22 11:50:35;;;;;;;5.53;2.57;;;34.20;31.70;;;;;;5074522;28;20440;-72
2022/08/22 11:53:15;;;;;;;5.90;2.40;;;34.10;31.30;;;;;;5074362;28;20474;-72
2022/08/22 11:55:50;;;;;;;4.20;2.57;;;34.10;32.10;;;;;;5074732;28;20428;-72
2022/08/22 11:58:26;;;;;;;4.53;2.70;;;34.30;31.70;;;;;;5074391;28;20464;-71
2022/08/22 12:00:58;;;;;;;4.07;2.20;;;34.50;32.10;;;;;;5074348;28;20432;-72
2022/08/22 12:03:47;;;;;;;3.70;2.77;;;34.90;32.40;;;;;;5074139;28;20464;-72
2022/08/22 12:06:34;;;;;;;4.37;2.40;;;35.60;29.90;;;;;;5074288;28;20420;-72
2022/08/22 12:09:26;;;;;;;5.70;2.20;;;36.20;29.40;;;;;;5074426;28;20439;-72
2022/08/22 12:12:10;;;;;;;5.43;2.47;;;37.50;29.00;;;;;;5074406;28;20432;-71
2022/08/22 12:14:44;;;;;;;3.83;2.20;;;38.60;26.20;;;;;;5074099;28;20222;-71
2022/08/22 12:17:32;;;;;;;4.32;2.00;;;39.10;25.70;;;;;;5073601;28;20213;-71
2022/08/22 12:20:12;;;;;;;6.80;2.58;;;39.40;25.80;;;;;;5074193;28;20214;-71
2022/08/22 12:23:04;;;;;;;3.70;1.92;;;39.50;25.10;;;;;;5074351;28;20237;-72
2022/08/22 12:25:49;;;;;;;5.18;2.40;;;39.30;25.00;;;;;;5072175;28;20376;-72
2022/08/22 12:28:29;;;;;;;7.95;3.10;;;39.10;25.70;;;;;;5073843;28;20186;-72
2022/08/22 12:31:07;;;;;;;6.28;2.70;;;39.00;24.90;;;;;;5073657;28;20660;-72
2022/08/22 12:33:54;;;;;;;3.42;2.03;;;38.90;24.70;;;;;;5073489;28;20228;-72
2022/08/22 12:36:43;;;;;;;4.82;2.75;;;38.90;25.10;;;;;;5073801;28;20196;-72
2022/08/22 12:39:30;;;;;;;3.75;2.22;;;39.00;25.40;;;;;;5073518;28;20564;-72
2022/08/22 12:42:27;;;;;;;4.40;2.17;;;39.70;25.50;;;;;;5073710;28;20190;-72
2022/08/22 12:45:17;;;;;;;5.78;2.33;;;41.40;24.10;;;;;;5073658;28;20191;-73
2022/08/22 12:48:08;;;;;;;3.65;2.42;;;42.70;21.50;;;;;;5073651;28;20190;-72
2022/08/22 12:50:43;;;;;;;4.35;2.08;;;43.60;19.90;;;;;;5073535;28;20190;-72
2022/08/22 12:53:40;;;;;;;3.47;1.90;;;43.90;20.30;;;;;;5073284;28;20267;-72
2022/08/22 12:56:20;;;;;;;3.08;1.70;;;43.80;19.80;;;;;;5069666;28;20206;-72
2022/08/22 12:59:09;;;;;;;3.10;2.03;;;44.00;19.60;;;;;;5073266;28;20594;-72
2022/08/22 13:01:41;;;;;;;4.78;2.03;;;44.50;19.30;;;;;;5073657;28;20196;-73
2022/08/22 13:04:14;;;;;;;2.85;1.92;;;45.10;19.20;;;;;;5073543;28;20225;-73
2022/08/22 13:06:53;;;;;;;4.60;1.85;;;45.40;17.60;;;;;;5074329;28;20186;-73
2022/08/22 13:09:28;;;;;;;3.90;1.95;;;45.50;18.10;;;;;;5073132;28;20655;-73
2022/08/22 13:11:57;;;;;;;3.08;1.92;;;45.70;18.40;;;;;;5073502;28;20192;-73
2022/08/22 13:14:27;;;;;;;4.78;2.20;;;45.90;18.40;;;;;;5073300;28;20233;-73
2022/08/22 13:16:59;;;;;;;3.05;1.60;;;46.20;18.20;;;;;;5073459;28;20252;-71
2022/08/22 13:19:30;;;;;;;3.60;2.20;;;46.30;17.90;;;;;;5073485;28;20631;-71
2022/08/22 13:22:01;;;;;;;3.63;2.05;;;46.00;18.00;;;;;;5073431;28;20285;-71
2022/08/22 13:24:35;;;;;;;2.15;1.58;;;45.50;18.70;;;;;;5073580;28;20226;-71
2022/08/22 13:27:07;;;;;;;3.05;1.80;;;45.10;18.80;;;;;;5073865;28;20277;-71
2022/08/22 13:29:40;;;;;;;3.72;1.80;;;44.50;19.30;;;;;;5078145;28;20190;-71
2022/08/22 13:32:18;;;;;;;3.40;1.73;;;44.10;20.10;;;;;;5079173;28;20186;-70
2022/08/22 13:34:48;;;;;;;3.08;1.88;;;43.80;20.50;;;;;;5079667;28;20223;-70
2022/08/22 13:37:17;;;;;;;2.45;1.75;;;43.50;20.00;;;;;;5078393;28;20213;-70
2022/08/22 13:39:47;;;;;;;3.08;2.10;;;43.30;20.50;;;;;;5076738;28;20206;-70
2022/08/22 13:42:17;;;;;;;3.45;1.80;;;43.00;20.70;;;;;;5077036;28;20665;-70
2022/08/22 13:44:49;;;;;;;3.63;2.20;;;42.80;20.80;;;;;;5076631;28;20668;-71